Terminal Aerodrome Forecast
Issued by NWS Cleveland, OH

Home | Current Version | Previous Version | Graphics & Text | Print | Product List | Glossary On
Versions: 1 2 3 4 5 6 7 8 9 10 11 12 13 14 15 16 17 18
000
FTUS41 KCLE 290300 AAB
TAFERI
TAF AMD
KERI 290356Z 2904/2924 32007KT P6SM BKN030
     FM291500 27007KT P6SM BKN035
     FM291700 27010KT P6SM SCT050=

USA.gov is the U.S. government's official web portal to all federal, state and local government web resources and services.